createdAt,value
2023-05-15T00:02:14.371Z,98684.28
2023-05-15T00:04:47.633Z,98683.88
2023-05-15T00:07:21.991Z,98679.03
2023-05-15T00:09:54.788Z,98681.94
2023-05-15T00:12:28.073Z,98676.09
2023-05-15T00:15:00.970Z,98671.72
2023-05-15T00:17:34.027Z,98676.03
2023-05-15T00:20:09.964Z,98685.88
2023-05-15T00:22:44.713Z,98682.91
2023-05-15T00:25:19.777Z,98673.50
2023-05-15T00:27:53.762Z,98679.63
2023-05-15T00:30:26.606Z,98676.97
2023-05-15T00:32:59.677Z,98675.91
2023-05-15T00:35:33.554Z,98675.31
2023-05-15T00:38:07.889Z,98679.84
2023-05-15T00:40:44.779Z,98673.91
2023-05-15T00:43:19.443Z,98684.53
2023-05-15T00:45:53.005Z,98682.47
2023-05-15T00:48:26.537Z,98677.22
2023-05-15T00:51:00.891Z,98666.97
2023-05-15T00:53:35.276Z,98676.28
2023-05-15T00:56:10.626Z,98680.50
2023-05-15T00:58:43.902Z,98679.69
2023-05-15T01:01:18.884Z,98674.03
2023-05-15T01:03:51.937Z,98667.56
2023-05-15T01:06:26.850Z,98672.28
2023-05-15T01:09:04.083Z,98667.81
2023-05-15T01:11:39.261Z,98678.00
2023-05-15T01:14:12.158Z,98673.94
2023-05-15T01:16:45.136Z,98672.44
2023-05-15T01:19:18.301Z,98671.63
2023-05-15T01:22:17.386Z,98673.56
2023-05-15T01:25:27.110Z,98665.13
2023-05-15T01:28:06.786Z,98671.00
2023-05-15T01:30:43.235Z,98674.56
2023-05-15T01:33:22.025Z,98679.25
2023-05-15T01:36:02.569Z,98670.91
2023-05-15T01:38:40.852Z,98669.63
2023-05-15T01:41:17.560Z,98673.00
2023-05-15T01:44:00.996Z,98673.81
2023-05-15T01:46:38.865Z,98676.25
2023-05-15T01:49:14.837Z,98677.34
2023-05-15T01:51:52.108Z,98675.22
2023-05-15T01:54:28.949Z,98683.28
2023-05-15T01:57:02.937Z,98675.56
2023-05-15T01:59:38.372Z,98672.91
2023-05-15T02:02:12.154Z,98673.81
2023-05-15T02:04:48.757Z,98675.28
2023-05-15T02:07:22.636Z,98677.50
2023-05-15T02:09:56.539Z,98679.78
2023-05-15T02:12:29.892Z,98677.72
2023-05-15T02:15:05.195Z,98668.19
2023-05-15T02:17:38.254Z,98670.56
2023-05-15T02:20:12.054Z,98659.53
2023-05-15T02:22:45.066Z,98664.25
2023-05-15T02:25:18.851Z,98662.38
2023-05-15T02:27:58.558Z,98658.53
2023-05-15T02:30:39.511Z,98656.84
2023-05-15T02:33:19.597Z,98652.28
2023-05-15T02:35:58.544Z,98649.13
2023-05-15T02:38:35.000Z,98652.72
2023-05-15T02:41:09.347Z,98653.28
2023-05-15T02:43:45.805Z,98651.78
2023-05-15T02:46:21.512Z,98647.94
2023-05-15T02:48:57.314Z,98649.69
2023-05-15T02:51:30.574Z,98654.13
2023-05-15T02:54:04.237Z,98637.66
2023-05-15T02:56:40.012Z,98643.19
2023-05-15T02:59:13.504Z,98634.06
2023-05-15T03:01:48.001Z,98637.38
2023-05-15T03:04:22.562Z,98638.25
2023-05-15T03:06:55.854Z,98638.59
2023-05-15T03:09:28.752Z,98631.16
2023-05-15T03:12:01.642Z,98626.31
2023-05-15T03:14:34.649Z,98629.06
2023-05-15T03:17:10.800Z,98624.41
2023-05-15T03:19:43.713Z,98635.44
2023-05-15T03:22:16.837Z,98638.91
2023-05-15T03:24:50.119Z,98641.13
2023-05-15T03:27:22.947Z,98641.34
2023-05-15T03:29:55.936Z,98634.16
2023-05-15T03:32:30.454Z,98639.41
2023-05-15T03:35:03.408Z,98636.63
2023-05-15T03:37:36.765Z,98639.28
2023-05-15T03:40:10.692Z,98635.44
2023-05-15T03:42:44.326Z,98633.78
2023-05-15T03:45:21.006Z,98630.31
2023-05-15T03:47:56.301Z,98629.00
2023-05-15T03:50:31.025Z,98638.72
2023-05-15T03:53:05.443Z,98637.25
2023-05-15T03:55:41.359Z,98634.78
2023-05-15T03:58:14.449Z,98639.06
2023-05-15T04:00:47.373Z,98630.56
2023-05-15T04:03:21.831Z,98633.09
2023-05-15T04:05:55.025Z,98638.50
2023-05-15T04:08:28.048Z,98642.88
2023-05-15T04:11:01.167Z,98643.84
2023-05-15T04:13:34.135Z,98645.72
2023-05-15T04:16:08.674Z,98637.72
2023-05-15T04:18:42.956Z,98647.94
2023-05-15T04:21:15.980Z,98646.09
2023-05-15T04:23:48.742Z,98641.66
2023-05-15T04:26:21.680Z,98639.75
2023-05-15T04:31:36.062Z,98639.16
2023-05-15T04:34:10.723Z,98635.94
2023-05-15T04:36:43.739Z,98631.94
2023-05-15T04:39:16.741Z,98623.47
2023-05-15T04:41:50.046Z,98630.81
2023-05-15T04:44:23.022Z,98626.94
2023-05-15T04:46:55.932Z,98621.16
2023-05-15T04:49:30.182Z,98621.28
2023-05-15T04:52:03.129Z,98628.00
2023-05-15T04:54:36.161Z,98629.72
2023-05-15T04:57:09.286Z,98638.91
2023-05-15T04:59:42.214Z,98638.97
2023-05-15T05:02:15.286Z,98628.06
2023-05-15T05:04:49.860Z,98636.41
2023-05-15T05:07:22.790Z,98630.84
2023-05-15T05:09:55.896Z,98641.31
2023-05-15T05:12:28.880Z,98637.66
2023-05-15T05:15:01.896Z,98648.41
2023-05-15T05:17:34.975Z,98640.97
2023-05-15T05:20:12.988Z,98636.53
2023-05-15T05:22:46.333Z,98627.28
2023-05-15T05:25:19.721Z,98632.38
2023-05-15T05:27:52.786Z,98629.25
2023-05-15T05:30:25.724Z,98615.94
2023-05-15T05:32:58.664Z,98628.03
2023-05-15T05:35:33.214Z,98623.81
2023-05-15T05:38:07.248Z,98623.81
2023-05-15T05:40:40.141Z,98636.00
2023-05-15T05:43:13.038Z,98625.81
2023-05-15T05:45:46.147Z,98631.75
2023-05-15T05:48:19.288Z,98633.00
2023-05-15T05:50:53.873Z,98629.06
2023-05-15T05:53:26.877Z,98634.97
2023-05-15T05:55:59.806Z,98636.97
2023-05-15T05:58:32.781Z,98635.41
2023-05-15T06:01:06.358Z,98633.88
2023-05-15T06:03:39.985Z,98649.47
2023-05-15T06:06:14.251Z,98647.94
2023-05-15T06:08:47.031Z,98642.97
2023-05-15T06:11:19.912Z,98646.78
2023-05-15T06:13:52.708Z,98648.03
2023-05-15T06:16:25.591Z,98655.63
2023-05-15T06:18:58.362Z,98649.84
2023-05-15T06:21:32.739Z,98655.84
2023-05-15T06:24:06.011Z,98657.53
2023-05-15T06:26:38.930Z,98648.72
2023-05-15T06:29:11.763Z,98658.69
2023-05-15T06:31:44.613Z,98652.38
2023-05-15T06:34:17.402Z,98643.19
2023-05-15T06:36:52.570Z,98649.09
2023-05-15T06:39:25.729Z,98649.28
2023-05-15T06:42:01.429Z,98651.13
2023-05-15T06:44:36.263Z,98655.09
2023-05-15T06:47:09.103Z,98644.75
2023-05-15T06:49:42.072Z,98653.78
2023-05-15T06:52:16.272Z,98652.75
2023-05-15T06:54:49.087Z,98654.22
2023-05-15T06:57:21.850Z,98659.59
2023-05-15T06:59:54.726Z,98655.66
2023-05-15T07:02:27.602Z,98659.63
2023-05-15T07:05:00.607Z,98653.34
2023-05-15T07:07:34.830Z,98657.41
2023-05-15T07:10:09.299Z,98656.16
2023-05-15T07:12:42.077Z,98657.41
2023-05-15T07:15:14.855Z,98653.97
2023-05-15T07:17:47.827Z,98656.63
2023-05-15T07:20:20.743Z,98648.34
2023-05-15T07:22:56.653Z,98657.53
2023-05-15T07:25:29.984Z,98652.44
2023-05-15T07:28:03.356Z,98654.13
2023-05-15T07:30:36.514Z,98656.13
2023-05-15T07:33:09.251Z,98652.16
2023-05-15T07:35:42.264Z,98649.50
2023-05-15T07:38:16.644Z,98651.78
2023-05-15T07:40:49.434Z,98654.75
2023-05-15T07:43:22.200Z,98647.91
2023-05-15T07:45:55.035Z,98645.16
2023-05-15T07:48:27.848Z,98648.44
2023-05-15T07:51:00.829Z,98647.19
2023-05-15T07:53:35.002Z,98644.28
2023-05-15T07:56:08.458Z,98655.38
2023-05-15T07:58:41.218Z,98652.06
2023-05-15T08:01:13.957Z,98644.00
2023-05-15T08:03:47.009Z,98643.41
2023-05-15T08:06:19.994Z,98644.31
2023-05-15T08:08:54.283Z,98636.03
2023-05-15T08:11:28.189Z,98641.66
2023-05-15T08:14:01.024Z,98640.03
2023-05-15T08:16:33.948Z,98638.53
2023-05-15T08:19:07.906Z,98638.66
2023-05-15T08:21:40.941Z,98644.50
2023-05-15T08:24:15.449Z,98634.03
2023-05-15T08:26:48.289Z,98639.47
2023-05-15T08:29:21.210Z,98633.72
2023-05-15T08:31:54.166Z,98628.69
2023-05-15T08:34:26.924Z,98631.44
2023-05-15T08:37:00.304Z,98628.72
2023-05-15T08:39:34.639Z,98632.78
2023-05-15T08:42:11.963Z,98620.34
2023-05-15T08:44:45.508Z,98624.22
2023-05-15T08:47:20.075Z,98614.28
2023-05-15T08:50:00.690Z,98618.34
2023-05-15T08:52:34.292Z,98627.13
2023-05-15T08:55:10.003Z,98616.13
2023-05-15T08:57:43.982Z,98622.38
2023-05-15T09:00:20.980Z,98615.28
2023-05-15T09:02:55.748Z,98609.69
2023-05-15T09:05:29.631Z,98606.88
2023-05-15T09:08:06.637Z,98603.56
2023-05-15T09:10:41.327Z,98605.06
2023-05-15T09:13:15.814Z,98594.16
2023-05-15T09:15:48.886Z,98593.91
2023-05-15T09:18:21.838Z,98605.88
2023-05-15T09:20:56.195Z,98598.13
2023-05-15T09:23:29.342Z,98601.84
2023-05-15T09:26:04.739Z,98595.00
2023-05-15T09:28:37.603Z,98594.75
2023-05-15T09:31:10.409Z,98597.34
2023-05-15T09:33:44.025Z,98597.97
2023-05-15T09:36:22.852Z,98593.22
2023-05-15T09:38:59.856Z,98590.53
2023-05-15T09:41:34.161Z,98585.47
2023-05-15T09:44:21.275Z,98584.44
2023-05-15T09:46:55.092Z,98583.91
2023-05-15T09:49:30.980Z,98582.69
2023-05-15T09:52:08.309Z,98577.44
2023-05-15T09:54:41.820Z,98571.50
2023-05-15T09:57:16.216Z,98573.84
2023-05-15T09:59:50.044Z,98568.66
2023-05-15T10:02:28.163Z,98574.63
2023-05-15T10:05:01.341Z,98576.41
2023-05-15T10:07:36.805Z,98567.41
2023-05-15T10:10:10.620Z,98561.22
2023-05-15T10:12:45.834Z,98558.28
2023-05-15T10:15:21.480Z,98561.16
2023-05-15T10:17:54.630Z,98553.00
2023-05-15T10:20:28.167Z,98550.09
2023-05-15T10:23:02.541Z,98561.41
2023-05-15T10:25:42.398Z,98554.78
2023-05-15T10:28:18.319Z,98553.75
2023-05-15T10:30:52.296Z,98553.38
2023-05-15T10:33:25.402Z,98552.34
2023-05-15T10:36:00.109Z,98543.78
2023-05-15T10:38:34.162Z,98540.78
2023-05-15T10:41:17.233Z,98545.09
2023-05-15T10:43:54.580Z,98545.22
2023-05-15T10:46:29.024Z,98543.38
2023-05-15T10:49:02.405Z,98550.06
2023-05-15T10:51:36.928Z,98552.72
2023-05-15T10:54:11.635Z,98567.56
2023-05-15T10:56:44.771Z,98575.47
2023-05-15T10:59:19.394Z,98585.03
2023-05-15T11:01:53.232Z,98578.38
2023-05-15T11:04:27.525Z,98573.56
2023-05-15T11:15:22.396Z,98560.88
2023-05-15T11:18:06.667Z,98567.94
2023-05-15T11:21:25.246Z,98557.09
2023-05-15T11:34:56.723Z,98532.84
2023-05-15T11:38:15.815Z,98535.81
2023-05-15T11:41:50.862Z,98536.56
2023-05-15T11:51:54.404Z,98535.63
2023-05-15T11:58:24.473Z,98528.31
2023-05-15T12:02:37.484Z,98520.16
2023-05-15T12:05:59.802Z,98530.47
2023-05-15T12:09:08.041Z,98528.88
2023-05-15T12:12:27.662Z,98527.97
2023-05-15T12:15:36.720Z,98531.31
2023-05-15T12:18:45.432Z,98534.28
2023-05-15T12:21:37.702Z,98533.75
2023-05-15T12:24:22.225Z,98530.06
2023-05-15T12:27:03.985Z,98524.38
2023-05-15T12:29:41.618Z,98528.19
2023-05-15T12:32:15.044Z,98524.28
2023-05-15T12:34:49.087Z,98526.09
2023-05-15T12:37:23.107Z,98519.75
2023-05-15T12:40:00.954Z,98512.16
2023-05-15T12:42:40.073Z,98513.66
2023-05-15T12:45:15.409Z,98522.50
2023-05-15T12:47:55.375Z,98516.59
2023-05-15T12:50:30.840Z,98518.50
2023-05-15T12:53:06.591Z,98517.72
2023-05-15T12:55:41.877Z,98513.16
2023-05-15T12:58:18.760Z,98510.16
2023-05-15T13:00:52.945Z,98506.94
2023-05-15T13:03:28.029Z,98510.19
2023-05-15T13:06:03.788Z,98508.50
2023-05-15T13:08:41.796Z,98505.28
2023-05-15T13:11:16.477Z,98500.47
2023-05-15T13:13:51.079Z,98504.38
2023-05-15T13:16:27.088Z,98496.78
2023-05-15T13:19:00.258Z,98502.31
2023-05-15T13:21:33.260Z,98498.50
2023-05-15T13:24:09.988Z,98492.16
2023-05-15T13:27:20.354Z,98498.97
2023-05-15T13:29:55.654Z,98498.03
2023-05-15T13:32:29.006Z,98495.34
2023-05-15T13:35:02.270Z,98481.09
2023-05-15T13:37:35.176Z,98484.25
2023-05-15T13:40:11.062Z,98482.16
2023-05-15T13:44:01.568Z,98484.94
2023-05-15T13:46:39.412Z,98486.91
2023-05-15T13:49:12.371Z,98484.28
2023-05-15T13:51:45.253Z,98481.53
2023-05-15T13:54:18.105Z,98471.84
2023-05-15T13:56:51.036Z,98466.97
2023-05-15T13:59:23.892Z,98462.75
2023-05-15T14:01:58.163Z,98463.84
2023-05-15T14:04:31.032Z,98452.19
2023-05-15T14:07:03.886Z,98462.53
2023-05-15T14:09:36.791Z,98449.63
2023-05-15T14:12:11.341Z,98456.69
2023-05-15T14:14:45.874Z,98455.53
2023-05-15T14:17:20.021Z,98449.19
2023-05-15T14:19:53.185Z,98457.13
2023-05-15T14:22:25.978Z,98450.06
2023-05-15T14:24:59.011Z,98459.47
2023-05-15T14:27:32.395Z,98466.47
2023-05-15T14:30:06.486Z,98470.56
2023-05-15T14:32:41.459Z,98468.19
2023-05-15T14:35:15.185Z,98481.25
2023-05-15T14:37:48.041Z,98492.53
2023-05-15T14:40:20.899Z,98488.97
2023-05-15T14:42:53.920Z,98486.13
2023-05-15T14:45:26.964Z,98484.19
2023-05-15T14:48:01.482Z,98468.53
2023-05-15T14:50:34.416Z,98471.88
2023-05-15T14:53:07.446Z,98478.38
2023-05-15T14:55:40.244Z,98466.69
2023-05-15T14:58:13.006Z,98468.28
2023-05-15T15:00:46.501Z,98467.13
2023-05-15T15:03:22.041Z,98474.22
2023-05-15T15:05:54.994Z,98482.72
2023-05-15T15:08:27.750Z,98478.16
2023-05-15T15:11:00.497Z,98490.00
2023-05-15T15:13:33.352Z,98491.81
2023-05-15T15:16:08.298Z,98511.75
2023-05-15T15:18:46.534Z,98523.03
2023-05-15T15:21:22.775Z,98518.03
2023-05-15T15:23:56.590Z,98528.66
2023-05-15T15:26:30.100Z,98531.41
2023-05-15T15:29:03.596Z,98531.19
2023-05-15T15:31:37.081Z,98523.25
2023-05-15T15:34:12.456Z,98518.84
2023-05-15T15:36:45.536Z,98537.66
2023-05-15T15:39:18.594Z,98525.84
2023-05-15T15:41:52.392Z,98522.69
2023-05-15T15:44:25.921Z,98517.94
2023-05-15T15:46:59.564Z,98527.13
2023-05-15T15:50:19.928Z,98523.97
2023-05-15T15:52:55.201Z,98529.03
2023-05-15T15:55:28.627Z,98541.50
2023-05-15T15:58:01.975Z,98540.06
2023-05-15T16:00:34.996Z,98537.44
2023-05-15T16:03:08.193Z,98549.25
2023-05-15T16:05:41.795Z,98539.13
2023-05-15T16:08:16.791Z,98542.41
2023-05-15T16:10:49.773Z,98534.28
2023-05-15T16:13:22.834Z,98542.88
2023-05-15T16:15:55.914Z,98537.88
2023-05-15T16:18:28.909Z,98534.13
2023-05-15T16:21:02.275Z,98530.19
2023-05-15T16:23:37.164Z,98532.41
2023-05-15T16:26:11.374Z,98531.75
2023-05-15T16:28:44.411Z,98532.63
2023-05-15T16:31:17.646Z,98537.81
2023-05-15T16:33:54.450Z,98537.16
2023-05-15T16:36:27.878Z,98545.41
2023-05-15T16:39:04.671Z,98550.88
2023-05-15T16:41:45.015Z,98552.72
2023-05-15T16:44:18.278Z,98552.19
2023-05-15T16:46:55.112Z,98551.94
2023-05-15T16:49:28.377Z,98558.25
2023-05-15T16:52:01.570Z,98561.13
2023-05-15T16:54:36.445Z,98574.34
2023-05-15T16:57:09.761Z,98575.91
2023-05-15T16:59:42.908Z,98575.41
2023-05-15T17:02:16.011Z,98569.03
2023-05-15T17:04:49.032Z,98575.19
2023-05-15T17:07:21.940Z,98571.53
2023-05-15T17:09:56.456Z,98574.63
2023-05-15T17:12:29.672Z,98571.09
2023-05-15T17:15:09.184Z,98577.44
2023-05-15T17:17:42.241Z,98584.94
2023-05-15T17:20:15.419Z,98575.09
2023-05-15T17:22:48.327Z,98585.84
2023-05-15T17:25:22.811Z,98582.06
2023-05-15T17:27:55.764Z,98583.88
2023-05-15T17:30:28.905Z,98587.19
2023-05-15T17:33:02.062Z,98583.84
2023-05-15T17:35:35.247Z,98591.38
2023-05-15T17:38:08.827Z,98590.22
2023-05-15T17:40:43.481Z,98578.97
2023-05-15T17:43:17.234Z,98587.84
2023-05-15T17:45:50.950Z,98589.09
2023-05-15T17:48:24.256Z,98595.13
2023-05-15T17:50:57.474Z,98590.56
2023-05-15T17:53:31.036Z,98597.38
2023-05-15T17:56:06.124Z,98595.66
2023-05-15T17:58:39.377Z,98600.91
2023-05-15T18:01:15.986Z,98599.56
2023-05-15T18:03:49.606Z,98607.56
2023-05-15T18:06:23.474Z,98606.47
2023-05-15T18:09:00.304Z,98615.03
2023-05-15T18:11:38.345Z,98621.97
2023-05-15T18:14:16.474Z,98613.88
2023-05-15T18:17:01.451Z,98629.97
2023-05-15T18:20:21.551Z,98616.03
2023-05-15T18:23:03.247Z,98621.53
2023-05-15T18:25:36.977Z,98631.56
2023-05-15T18:28:11.654Z,98637.78
2023-05-15T18:30:46.731Z,98630.88
2023-05-15T18:33:22.799Z,98634.41
2023-05-15T18:35:57.914Z,98636.03
2023-05-15T18:38:31.119Z,98640.81
2023-05-15T18:41:04.545Z,98640.53
2023-05-15T18:43:39.591Z,98637.13
2023-05-15T18:46:15.463Z,98638.38
2023-05-15T18:48:51.071Z,98633.50
2023-05-15T18:51:31.506Z,98636.94
2023-05-15T18:54:08.283Z,98641.97
2023-05-15T18:56:46.178Z,98646.88
2023-05-15T18:59:24.794Z,98639.56
2023-05-15T19:02:01.198Z,98647.25
2023-05-15T19:04:34.488Z,98657.41
2023-05-15T19:07:08.359Z,98654.13
2023-05-15T19:10:43.773Z,98654.16
2023-05-15T19:13:33.339Z,98661.31
2023-05-15T19:16:35.285Z,98664.59
2023-05-15T19:19:19.245Z,98665.38
2023-05-15T19:22:02.261Z,98672.88
2023-05-15T19:24:49.317Z,98676.28
2023-05-15T19:27:26.478Z,98683.31
2023-05-15T19:29:59.883Z,98681.13
2023-05-15T19:32:35.761Z,98683.44
2023-05-15T19:35:09.891Z,98682.41
2023-05-15T19:37:43.521Z,98687.06
2023-05-15T19:40:18.681Z,98688.94
2023-05-15T19:42:51.831Z,98687.41
2023-05-15T19:45:24.867Z,98696.44
2023-05-15T19:48:00.651Z,98697.69
2023-05-15T19:50:33.798Z,98693.47
2023-05-15T19:53:07.730Z,98688.97
2023-05-15T19:55:40.973Z,98693.53
2023-05-15T19:58:13.944Z,98697.69
2023-05-15T20:00:48.160Z,98701.31
2023-05-15T20:03:22.847Z,98692.69
2023-05-15T20:05:55.975Z,98702.22
2023-05-15T20:08:29.354Z,98699.69
2023-05-15T20:11:02.366Z,98700.69
2023-05-15T20:13:37.478Z,98699.38
2023-05-15T20:16:12.651Z,98697.47
2023-05-15T20:18:48.019Z,98701.34
2023-05-15T20:21:21.000Z,98702.41
2023-05-15T20:23:53.958Z,98701.88
2023-05-15T20:26:27.197Z,98705.88
2023-05-15T20:29:00.136Z,98721.13
2023-05-15T20:31:33.703Z,98719.34
2023-05-15T20:34:08.236Z,98715.75
2023-05-15T20:36:41.570Z,98718.53
2023-05-15T20:39:14.594Z,98727.00
2023-05-15T20:41:47.676Z,98719.50
2023-05-15T20:44:20.969Z,98725.03
2023-05-15T20:46:54.036Z,98725.81
2023-05-15T20:49:28.672Z,98728.91
2023-05-15T20:52:02.061Z,98734.78
2023-05-15T20:54:35.039Z,98724.66
2023-05-15T20:57:08.178Z,98728.66
2023-05-15T20:59:41.234Z,98718.78
2023-05-15T21:02:14.256Z,98713.97
2023-05-15T21:05:29.895Z,98712.81
2023-05-15T21:08:54.556Z,98717.84
2023-05-15T21:12:00.205Z,98717.44
2023-05-15T21:14:50.465Z,98723.75
2023-05-15T21:17:49.092Z,98719.56
2023-05-15T21:21:02.850Z,98714.25
2023-05-15T21:24:11.751Z,98723.19
2023-05-15T21:30:49.628Z,98735.81
2023-05-15T21:33:22.842Z,98725.94
2023-05-15T21:35:57.460Z,98723.09
2023-05-15T21:38:30.757Z,98724.28
2023-05-15T21:41:04.005Z,98719.66
2023-05-15T21:43:37.063Z,98712.19
2023-05-15T21:46:10.256Z,98723.13
2023-05-15T21:48:43.440Z,98707.69
2023-05-15T21:51:18.189Z,98715.78
2023-05-15T21:53:51.285Z,98712.66
2023-05-15T21:56:24.545Z,98714.78
2023-05-15T21:58:58.251Z,98711.19
2023-05-15T22:01:31.637Z,98707.94
2023-05-15T22:04:04.938Z,98704.44
2023-05-15T22:06:40.427Z,98707.59
2023-05-15T22:09:13.857Z,98712.63
2023-05-15T22:11:47.225Z,98707.41
2023-05-15T22:14:22.721Z,98707.63
2023-05-15T22:16:56.131Z,98703.91
2023-05-15T22:19:33.357Z,98718.25
2023-05-15T22:22:08.252Z,98714.97
2023-05-15T22:24:42.359Z,98713.22
2023-05-15T22:27:16.856Z,98702.81
2023-05-15T22:29:50.298Z,98719.22
2023-05-15T22:32:23.684Z,98717.25
2023-05-15T22:34:57.211Z,98727.72
2023-05-15T22:37:32.214Z,98723.03
2023-05-15T22:40:07.580Z,98726.03
2023-05-15T22:42:40.704Z,98727.25
2023-05-15T22:45:56.145Z,98737.28
2023-05-15T22:48:29.502Z,98731.16
2023-05-15T22:51:02.816Z,98734.63
2023-05-15T22:53:37.277Z,98731.19
2023-05-15T22:56:10.513Z,98726.16
2023-05-15T22:58:43.706Z,98725.56
2023-05-15T23:01:17.046Z,98727.47
2023-05-15T23:03:50.402Z,98721.75
2023-05-15T23:06:23.699Z,98732.75
2023-05-15T23:08:58.527Z,98730.16
2023-05-15T23:11:31.858Z,98728.47
2023-05-15T23:14:04.973Z,98728.72
2023-05-15T23:16:38.093Z,98728.63
2023-05-15T23:19:11.560Z,98734.25
2023-05-15T23:21:44.687Z,98725.13
2023-05-15T23:24:19.218Z,98742.19
2023-05-15T23:26:52.960Z,98733.75
2023-05-15T23:29:26.529Z,98734.25
2023-05-15T23:31:59.619Z,98739.94
2023-05-15T23:34:32.693Z,98731.88
2023-05-15T23:37:06.213Z,98730.00
2023-05-15T23:39:40.733Z,98737.69
2023-05-15T23:42:13.872Z,98735.00
2023-05-15T23:44:47.076Z,98733.88
2023-05-15T23:47:20.310Z,98738.91
2023-05-15T23:49:53.432Z,98740.97
2023-05-15T23:52:26.612Z,98743.03
2023-05-15T23:55:01.876Z,98745.63
2023-05-15T23:57:35.148Z,98739.63
